Time,TemperatureF,DewpointF,PressureIn,WindDirection,WindDirectionDegrees,WindSpeedMPH,WindSpeedGustMPH,Humidity,HourlyPrecipIn,Conditions,Clouds,dailyrainin,SoftwareType,DateUTC
2013-01-07 00:02:00,42.0,20.0,30.07,NNW,341,11.0,15.0,41,0.00,,,0.00,,2013-01-07 08:02:00,
2013-01-07 00:11:00,42.0,20.0,30.07,NNW,341,11.0,15.0,41,0.00,,,0.00,,2013-01-07 08:11:00,
2013-01-07 00:22:00,43.0,20.0,30.06,North,360,9.0,15.0,39,0.00,,,0.00,,2013-01-07 08:22:00,
2013-01-07 00:32:00,43.0,19.0,30.06,NNW,347,11.0,15.0,38,0.00,,,0.00,,2013-01-07 08:32:00,
2013-01-07 00:42:00,43.0,19.0,30.06,NNW,347,11.0,15.0,38,0.00,,,0.00,,2013-01-07 08:42:00,
2013-01-07 00:52:00,42.0,19.0,30.05,North,358,6.0,13.0,39,0.00,,,0.00,,2013-01-07 08:52:00,
2013-01-07 01:02:00,41.0,19.0,30.05,North,360,4.0,7.0,40,0.00,,,0.00,,2013-01-07 09:02:00,
2013-01-07 01:12:00,41.0,19.0,30.05,North,360,4.0,7.0,40,0.00,,,0.00,,2013-01-07 09:12:00,
2013-01-07 01:22:00,40.0,18.0,30.06,North,1,9.0,13.0,41,0.00,,,0.00,,2013-01-07 09:22:00,
2013-01-07 01:32:00,40.0,18.0,30.06,North,358,9.0,16.0,40,0.00,,,0.00,,2013-01-07 09:32:00,
2013-01-07 01:42:00,40.0,18.0,30.06,North,358,9.0,16.0,40,0.00,,,0.00,,2013-01-07 09:42:00,
2013-01-07 01:52:00,40.0,17.0,30.06,North,360,7.0,13.0,39,0.00,,,0.00,,2013-01-07 09:52:00,
2013-01-07 02:02:00,40.0,16.0,30.06,North,358,7.0,13.0,38,0.00,,,0.00,,2013-01-07 10:02:00,
2013-01-07 02:11:00,43.0,17.0,30.05,North,351,18.0,22.0,34,0.00,,,0.00,,2013-01-07 10:11:00,
2013-01-07 02:22:00,43.0,17.0,30.05,North,351,18.0,22.0,34,0.00,,,0.00,,2013-01-07 10:22:00,
2013-01-07 02:32:00,43.0,16.0,30.05,North,352,19.0,25.0,33,0.00,,,0.00,,2013-01-07 10:32:00,
2013-01-07 02:42:00,43.0,16.0,30.05,North,352,19.0,25.0,33,0.00,,,0.00,,2013-01-07 10:42:00,
2013-01-07 02:52:00,44.0,16.0,30.05,NNW,340,18.0,33.0,32,0.00,,,0.00,,2013-01-07 10:52:00,
2013-01-07 03:01:00,44.0,15.0,30.05,NW,321,23.0,37.0,31,0.00,,,0.00,,2013-01-07 11:01:00,
2013-01-07 03:12:00,44.0,15.0,30.05,NW,321,23.0,37.0,31,0.00,,,0.00,,2013-01-07 11:12:00,
2013-01-07 03:22:00,44.0,15.0,30.05,NNW,338,19.0,27.0,31,0.00,,,0.00,,2013-01-07 11:22:00,
2013-01-07 03:32:00,44.0,15.0,30.05,NNW,348,21.0,33.0,30,0.00,,,0.00,,2013-01-07 11:32:00,
2013-01-07 03:42:00,44.0,15.0,30.05,NNW,348,21.0,33.0,30,0.00,,,0.00,,2013-01-07 11:42:00,
2013-01-07 03:53:00,44.0,15.0,30.06,NNW,346,20.0,30.0,31,0.00,,,0.00,,2013-01-07 11:53:00,
2013-01-07 04:02:00,43.0,14.0,30.06,North,357,18.0,32.0,31,0.00,,,0.00,,2013-01-07 12:02:00,
2013-01-07 04:12:00,43.0,16.0,30.06,North,360,16.0,25.0,33,0.00,,,0.00,,2013-01-07 12:12:00,
2013-01-07 04:22:00,43.0,16.0,30.06,North,360,16.0,25.0,33,0.00,,,0.00,,2013-01-07 12:22:00,
2013-01-07 04:32:00,42.0,15.0,30.06,North,5,19.0,29.0,33,0.00,,,0.00,,2013-01-07 12:32:00,
2013-01-07 04:42:00,42.0,15.0,30.06,North,5,19.0,29.0,33,0.00,,,0.00,,2013-01-07 12:42:00,
2013-01-07 04:52:00,42.0,16.0,30.05,North,360,18.0,26.0,34,0.00,,,0.00,,2013-01-07 12:52:00,
2013-01-07 05:02:00,42.0,16.0,30.05,NNW,342,16.0,24.0,35,0.00,,,0.00,,2013-01-07 13:02:00,
2013-01-07 05:12:00,42.0,16.0,30.05,NNW,342,16.0,24.0,35,0.00,,,0.00,,2013-01-07 13:12:00,
2013-01-07 05:22:00,42.0,16.0,30.06,North,358,22.0,29.0,34,0.00,,,0.00,,2013-01-07 13:22:00,
2013-01-07 05:32:00,42.0,15.0,30.06,North,352,17.0,25.0,33,0.00,,,0.00,,2013-01-07 13:32:00,
2013-01-07 05:42:00,42.0,15.0,30.06,North,352,17.0,25.0,33,0.00,,,0.00,,2013-01-07 13:42:00,
2013-01-07 05:53:00,42.0,14.0,30.07,North,360,18.0,25.0,31,0.00,,,0.00,,2013-01-07 13:53:00,
2013-01-07 06:02:00,43.0,14.0,30.07,North,360,16.0,24.0,30,0.00,,,0.00,,2013-01-07 14:02:00,
2013-01-07 06:12:00,43.0,14.0,30.07,North,360,16.0,24.0,30,0.00,,,0.00,,2013-01-07 14:12:00,
2013-01-07 06:22:00,43.0,14.0,30.09,North,4,16.0,19.0,30,0.00,,,0.00,,2013-01-07 14:22:00,
2013-01-07 06:32:00,43.0,12.0,30.09,NNW,347,12.0,22.0,28,0.00,,,0.00,,2013-01-07 14:32:00,
2013-01-07 06:42:00,43.0,12.0,30.09,NNW,347,12.0,22.0,28,0.00,,,0.00,,2013-01-07 14:42:00,
2013-01-07 06:53:00,44.0,13.0,30.08,North,360,17.0,22.0,28,0.00,,,0.00,,2013-01-07 14:53:00,
2013-01-07 07:02:00,44.0,12.0,30.08,North,358,19.0,23.0,27,0.00,,,0.00,,2013-01-07 15:02:00,
2013-01-07 07:12:00,44.0,12.0,30.08,North,358,19.0,23.0,27,0.00,,,0.00,,2013-01-07 15:12:00,
2013-01-07 07:22:00,45.0,12.0,30.09,North,358,20.0,27.0,26,0.00,,,0.00,,2013-01-07 15:22:00,
2013-01-07 07:33:00,45.0,12.0,30.09,North,353,22.0,30.0,26,0.00,,,0.00,,2013-01-07 15:33:00,
2013-01-07 07:42:00,45.0,12.0,30.09,North,353,22.0,30.0,26,0.00,,,0.00,,2013-01-07 15:42:00,
2013-01-07 07:53:00,45.0,13.0,30.12,North,7,17.0,26.0,27,0.00,,,0.00,,2013-01-07 15:53:00,
2013-01-07 08:02:00,45.0,13.0,30.12,North,351,18.0,27.0,27,0.00,,,0.00,,2013-01-07 16:02:00,
2013-01-07 08:12:00,45.0,13.0,30.12,North,351,18.0,27.0,27,0.00,,,0.00,,2013-01-07 16:12:00,
2013-01-07 08:22:00,46.0,13.0,30.11,North,354,20.0,30.0,26,0.00,,,0.00,,2013-01-07 16:22:00,
2013-01-07 08:32:00,46.0,13.0,30.11,North,354,17.0,28.0,26,0.00,,,0.00,,2013-01-07 16:32:00,
2013-01-07 08:42:00,46.0,13.0,30.11,North,354,17.0,28.0,26,0.00,,,0.00,,2013-01-07 16:42:00,
2013-01-07 08:53:00,47.0,12.0,30.12,NNW,335,21.0,30.0,24,0.00,,,0.00,,2013-01-07 16:53:00,
2013-01-07 09:02:00,48.0,12.0,30.12,North,360,21.0,32.0,23,0.00,,,0.00,,2013-01-07 17:02:00,
2013-01-07 09:12:00,48.0,12.0,30.12,North,360,21.0,32.0,23,0.00,,,0.00,,2013-01-07 17:12:00,
2013-01-07 09:22:00,50.0,12.0,30.11,NW,325,21.0,29.0,21,0.00,,,0.00,,2013-01-07 17:22:00,
2013-01-07 09:32:00,50.0,12.0,30.11,North,352,26.0,33.0,21,0.00,,,0.00,,2013-01-07 17:32:00,
2013-01-07 09:42:00,50.0,12.0,30.11,North,352,26.0,33.0,21,0.00,,,0.00,,2013-01-07 17:42:00,
2013-01-07 09:53:00,52.0,11.0,30.12,NNW,347,20.0,30.0,19,0.00,,,0.00,,2013-01-07 17:53:00,
2013-01-07 10:02:00,53.0,12.0,30.12,NNW,345,23.0,33.0,19,0.00,,,0.00,,2013-01-07 18:02:00,
2013-01-07 10:12:00,53.0,12.0,30.12,NNW,345,23.0,33.0,19,0.00,,,0.00,,2013-01-07 18:12:00,
2013-01-07 10:23:00,54.0,11.0,30.13,North,355,17.0,28.0,18,0.00,,,0.00,,2013-01-07 18:23:00,
2013-01-07 10:32:00,54.0,11.0,30.13,North,350,20.0,28.0,18,0.00,,,0.00,,2013-01-07 18:32:00,
2013-01-07 10:42:00,54.0,11.0,30.13,North,350,20.0,28.0,18,0.00,,,0.00,,2013-01-07 18:42:00,
2013-01-07 10:52:00,55.0,11.0,30.13,North,358,19.0,28.0,17,0.00,,,0.00,,2013-01-07 18:52:00,
2013-01-07 11:02:00,56.0,10.0,30.13,NNW,346,16.0,26.0,16,0.00,,,0.00,,2013-01-07 19:02:00,
2013-01-07 11:12:00,56.0,10.0,30.13,NNW,346,16.0,26.0,16,0.00,,,0.00,,2013-01-07 19:12:00,
2013-01-07 11:22:00,56.0,10.0,30.13,North,358,19.0,28.0,16,0.00,,,0.00,,2013-01-07 19:22:00,
2013-01-07 11:32:00,57.0,11.0,30.13,NNW,332,22.0,30.0,16,0.00,,,0.00,,2013-01-07 19:32:00,
2013-01-07 11:42:00,57.0,11.0,30.13,NNW,332,22.0,30.0,16,0.00,,,0.00,,2013-01-07 19:42:00,
2013-01-07 11:53:00,58.0,11.0,30.09,NNW,338,26.0,32.0,15,0.00,,,0.00,,2013-01-07 19:53:00,
2013-01-07 12:02:00,58.0,11.0,30.09,NNW,344,21.0,30.0,15,0.00,,,0.00,,2013-01-07 20:02:00,
2013-01-07 12:12:00,58.0,11.0,30.09,NNW,344,21.0,30.0,15,0.00,,,0.00,,2013-01-07 20:12:00,
2013-01-07 12:22:00,59.0,11.0,30.08,North,358,17.0,26.0,15,0.00,,,0.00,,2013-01-07 20:22:00,
2013-01-07 12:32:00,60.0,11.0,30.08,North,360,12.0,26.0,14,0.00,,,0.00,,2013-01-07 20:32:00,
2013-01-07 12:42:00,60.0,11.0,30.08,North,360,12.0,26.0,14,0.00,,,0.00,,2013-01-07 20:42:00,
2013-01-07 12:53:00,61.0,10.0,30.06,North,351,20.0,29.0,13,0.00,,,0.00,,2013-01-07 20:53:00,
2013-01-07 13:02:00,60.0,11.0,30.06,NNW,333,18.0,26.0,14,0.00,,,0.00,,2013-01-07 21:02:00,
2013-01-07 13:12:00,60.0,11.0,30.06,NNW,333,18.0,26.0,14,0.00,,,0.00,,2013-01-07 21:12:00,
2013-01-07 13:22:00,58.0,12.0,30.06,NNW,344,19.0,25.0,16,0.00,,,0.00,,2013-01-07 21:22:00,
2013-01-07 13:32:00,60.0,11.0,30.06,North,349,17.0,27.0,14,0.00,,,0.00,,2013-01-07 21:32:00,
2013-01-07 13:42:00,60.0,11.0,30.06,North,349,17.0,27.0,14,0.00,,,0.00,,2013-01-07 21:42:00,
2013-01-07 13:53:00,62.0,11.0,30.02,NNW,344,17.0,25.0,13,0.00,,,0.00,,2013-01-07 21:53:00,
2013-01-07 14:02:00,62.0,9.0,30.02,NNW,345,15.0,29.0,12,0.00,,,0.00,,2013-01-07 22:02:00,
2013-01-07 14:11:00,62.0,9.0,30.02,NNW,345,15.0,29.0,12,0.00,,,0.00,,2013-01-07 22:11:00,
2013-01-07 14:22:00,63.0,10.0,30.02,NNW,345,14.0,25.0,12,0.00,,,0.00,,2013-01-07 22:22:00,
2013-01-07 14:33:00,63.0,10.0,30.02,NNW,342,11.0,22.0,12,0.00,,,0.00,,2013-01-07 22:33:00,
2013-01-07 14:42:00,63.0,10.0,30.02,NNW,342,11.0,22.0,12,0.00,,,0.00,,2013-01-07 22:42:00,
2013-01-07 14:53:00,62.0,9.0,30.02,North,360,13.0,17.0,12,0.00,,,0.00,,2013-01-07 22:53:00,
2013-01-07 15:02:00,63.0,10.0,30.02,North,358,18.0,23.0,12,0.00,,,0.00,,2013-01-07 23:02:00,
2013-01-07 15:11:00,63.0,10.0,30.02,North,358,18.0,23.0,12,0.00,,,0.00,,2013-01-07 23:11:00,
2013-01-07 15:22:00,62.0,11.0,30.03,North,360,8.0,18.0,13,0.00,,,0.00,,2013-01-07 23:22:00,
2013-01-07 15:32:00,62.0,11.0,30.03,NE,49,6.0,13.0,13,0.00,,,0.00,,2013-01-07 23:32:00,
2013-01-07 15:42:00,62.0,11.0,30.03,NE,49,6.0,13.0,13,0.00,,,0.00,,2013-01-07 23:42:00,
2013-01-07 15:53:00,61.0,10.0,30.06,NE,43,5.0,7.0,13,0.00,,,0.00,,2013-01-07 23:53:00,
2013-01-07 16:02:00,61.0,11.0,30.06,NE,48,3.0,7.0,14,0.00,,,0.00,,2013-01-08 00:02:00,
2013-01-07 16:12:00,61.0,11.0,30.06,NE,48,3.0,7.0,14,0.00,,,0.00,,2013-01-08 00:12:00,
2013-01-07 16:22:00,59.0,10.0,30.07,ENE,61,2.0,5.0,14,0.00,,,0.00,,2013-01-08 00:22:00,
2013-01-07 16:32:00,59.0,11.0,30.07,ENE,61,0.0,2.0,15,0.00,,,0.00,,2013-01-08 00:32:00,
2013-01-07 16:42:00,59.0,11.0,30.07,ENE,61,0.0,2.0,15,0.00,,,0.00,,2013-01-08 00:42:00,
2013-01-07 16:52:00,58.0,11.0,30.09,ENE,61,1.0,3.0,15,0.00,,,0.00,,2013-01-08 00:52:00,
2013-01-07 17:02:00,57.0,10.0,30.09,NNE,13,1.0,6.0,15,0.00,,,0.00,,2013-01-08 01:02:00,
2013-01-07 17:11:00,57.0,10.0,30.09,NNE,13,1.0,6.0,15,0.00,,,0.00,,2013-01-08 01:11:00,
2013-01-07 17:22:00,56.0,10.0,30.06,NE,38,3.0,4.0,16,0.00,,,0.00,,2013-01-08 01:22:00,
2013-01-07 17:32:00,55.0,10.0,30.06,NE,40,0.0,4.0,16,0.00,,,0.00,,2013-01-08 01:32:00,
2013-01-07 17:42:00,55.0,10.0,30.06,NE,40,0.0,4.0,16,0.00,,,0.00,,2013-01-08 01:42:00,
2013-01-07 17:52:00,53.0,9.0,30.07,NE,40,2.0,4.0,17,0.00,,,0.00,,2013-01-08 01:52:00,
2013-01-07 18:02:00,52.0,10.0,30.07,NE,46,5.0,5.0,18,0.00,,,0.00,,2013-01-08 02:02:00,
2013-01-07 18:12:00,52.0,10.0,30.07,NE,46,5.0,5.0,18,0.00,,,0.00,,2013-01-08 02:12:00,
2013-01-07 18:22:00,50.0,9.0,30.09,ENE,77,4.0,5.0,19,0.00,,,0.00,,2013-01-08 02:22:00,
2013-01-07 18:32:00,49.0,10.0,30.09,ESE,113,5.0,7.0,20,0.00,,,0.00,,2013-01-08 02:32:00,
2013-01-07 18:42:00,49.0,10.0,30.09,ESE,113,5.0,7.0,20,0.00,,,0.00,,2013-01-08 02:42:00,
2013-01-07 18:53:00,47.0,7.0,30.09,ESE,113,3.0,5.0,19,0.00,,,0.00,,2013-01-08 02:53:00,
2013-01-07 19:02:00,46.0,6.0,30.09,ESE,113,3.0,5.0,19,0.00,,,0.00,,2013-01-08 03:02:00,
2013-01-07 19:12:00,46.0,6.0,30.09,ESE,113,3.0,5.0,19,0.00,,,0.00,,2013-01-08 03:12:00,
2013-01-07 19:22:00,44.0,8.0,30.11,NW,316,1.0,6.0,22,0.00,,,0.00,,2013-01-08 03:22:00,
2013-01-07 19:32:00,44.0,8.0,30.11,NW,316,2.0,3.0,22,0.00,,,0.00,,2013-01-08 03:32:00,
2013-01-07 19:42:00,44.0,8.0,30.11,NW,316,2.0,3.0,22,0.00,,,0.00,,2013-01-08 03:42:00,
2013-01-07 19:53:00,43.0,8.0,30.12,NW,316,0.0,3.0,23,0.00,,,0.00,,2013-01-08 03:53:00,
2013-01-07 20:02:00,42.0,6.0,30.12,NW,313,3.0,3.0,22,0.00,,,0.00,,2013-01-08 04:02:00,
2013-01-07 20:11:00,42.0,6.0,30.12,NW,313,3.0,3.0,22,0.00,,,0.00,,2013-01-08 04:11:00,
2013-01-07 20:22:00,40.0,6.0,30.10,South,186,6.0,7.0,24,0.00,,,0.00,,2013-01-08 04:22:00,
2013-01-07 20:32:00,40.0,7.0,30.10,SSW,201,6.0,7.0,25,0.00,,,0.00,,2013-01-08 04:32:00,
2013-01-07 20:42:00,40.0,7.0,30.10,SSW,201,6.0,7.0,25,0.00,,,0.00,,2013-01-08 04:42:00,
2013-01-07 20:52:00,39.0,6.0,30.12,SSW,196,5.0,9.0,25,0.00,,,0.00,,2013-01-08 04:52:00,
2013-01-07 21:03:00,39.0,6.0,30.12,SSE,154,6.0,7.0,25,0.00,,,0.00,,2013-01-08 05:03:00,
2013-01-07 21:12:00,39.0,6.0,30.12,SSE,154,6.0,7.0,25,0.00,,,0.00,,2013-01-08 05:12:00,
2013-01-07 21:22:00,39.0,7.0,30.12,SSE,153,3.0,5.0,26,0.00,,,0.00,,2013-01-08 05:22:00,
2013-01-07 21:32:00,40.0,7.0,30.12,SSE,154,4.0,5.0,25,0.00,,,0.00,,2013-01-08 05:32:00,
2013-01-07 21:42:00,40.0,7.0,30.12,SSE,154,4.0,5.0,25,0.00,,,0.00,,2013-01-08 05:42:00,
2013-01-07 21:53:00,40.0,8.0,30.10,SW,231,3.0,7.0,26,0.00,,,0.00,,2013-01-08 05:53:00,
2013-01-07 22:02:00,40.0,7.0,30.10,ESE,119,7.0,10.0,25,0.00,,,0.00,,2013-01-08 06:02:00,
2013-01-07 22:11:00,40.0,7.0,30.10,ESE,119,7.0,10.0,25,0.00,,,0.00,,2013-01-08 06:11:00,
2013-01-07 22:22:00,41.0,9.0,30.10,SSE,167,5.0,5.0,26,0.00,,,0.00,,2013-01-08 06:22:00,
2013-01-07 22:32:00,41.0,10.0,30.10,SW,217,6.0,7.0,27,0.00,,,0.00,,2013-01-08 06:32:00,
2013-01-07 22:42:00,41.0,10.0,30.10,SW,217,6.0,7.0,27,0.00,,,0.00,,2013-01-08 06:42:00,
2013-01-07 22:52:00,42.0,10.0,30.12,SSW,207,4.0,5.0,27,0.00,,,0.00,,2013-01-08 06:52:00,
2013-01-07 23:02:00,42.0,10.0,30.12,SSW,208,5.0,6.0,27,0.00,,,0.00,,2013-01-08 07:02:00,
2013-01-07 23:11:00,42.0,10.0,30.12,SSW,208,5.0,6.0,27,0.00,,,0.00,,2013-01-08 07:11:00,
2013-01-07 23:22:00,43.0,12.0,30.12,NW,318,3.0,4.0,28,0.00,,,0.00,,2013-01-08 07:22:00,
2013-01-07 23:32:00,44.0,12.0,30.12,SE,136,4.0,5.0,27,0.00,,,0.00,,2013-01-08 07:32:00,
2013-01-07 23:42:00,44.0,12.0,30.12,SE,136,4.0,5.0,27,0.00,,,0.00,,2013-01-08 07:42:00,
2013-01-07 23:52:00,44.0,15.0,30.11,SW,228,4.0,7.0,30,0.00,,,0.00,,2013-01-08 07:52:00,